createdAt,value
2023-03-22T00:04:26.413Z,1.80
2023-03-22T00:09:27.834Z,2.40
2023-03-22T00:14:29.221Z,1.95
2023-03-22T00:19:33.893Z,2.60
2023-03-22T00:24:35.380Z,1.92
2023-03-22T00:29:36.914Z,1.75
2023-03-22T00:34:38.336Z,1.85
2023-03-22T00:39:39.730Z,1.77
2023-03-22T00:44:41.540Z,2.35
2023-03-22T00:49:42.965Z,2.03
2023-03-22T00:54:44.348Z,1.70
2023-03-22T00:59:46.401Z,2.30
2023-03-22T01:04:48.230Z,1.88
2023-03-22T01:09:49.864Z,2.00
2023-03-22T01:14:51.232Z,1.90
2023-03-22T01:19:52.631Z,2.28
2023-03-22T01:24:54.100Z,2.05
2023-03-22T01:29:55.664Z,2.40
2023-03-22T01:34:57.070Z,2.15
2023-03-22T01:39:58.803Z,2.08
2023-03-22T01:45:15.460Z,1.70
2023-03-22T01:50:17.288Z,2.30
2023-03-22T01:55:22.793Z,1.90
2023-03-22T02:00:24.286Z,2.20
2023-03-22T02:05:26.451Z,2.50
2023-03-22T02:10:28.329Z,2.75
2023-03-22T02:15:32.626Z,2.35
2023-03-22T02:20:42.982Z,2.00
2023-03-22T02:26:10.612Z,2.40
2023-03-22T02:31:12.018Z,2.88
2023-03-22T02:36:32.609Z,2.70
2023-03-22T02:41:42.968Z,2.55
2023-03-22T02:46:53.743Z,3.40
2023-03-22T02:52:17.482Z,2.58
2023-03-22T02:57:37.738Z,2.70
2023-03-22T03:07:41.986Z,3.28
2023-03-22T03:12:43.721Z,3.00
2023-03-22T03:17:45.107Z,2.65
2023-03-22T03:22:46.640Z,2.72
2023-03-22T03:27:52.152Z,2.67
2023-03-22T03:33:03.195Z,2.80
2023-03-22T03:38:18.586Z,3.28
2023-03-22T03:43:20.649Z,4.07
2023-03-22T03:48:23.381Z,3.97
2023-03-22T03:53:25.174Z,4.57
2023-03-22T03:58:26.567Z,4.65
2023-03-22T04:03:28.415Z,5.03
2023-03-22T04:08:29.794Z,5.13
2023-03-22T04:13:31.117Z,5.60
2023-03-22T04:18:32.771Z,5.07
2023-03-22T04:23:34.216Z,6.32
2023-03-22T04:28:35.564Z,5.95
2023-03-22T04:33:39.502Z,7.00
2023-03-22T04:38:40.964Z,6.50
2023-03-22T04:43:42.576Z,6.15
2023-03-22T04:48:44.077Z,6.80
2023-03-22T04:53:45.623Z,6.55
2023-03-22T04:58:47.170Z,6.90
2023-03-22T05:03:48.682Z,7.75
2023-03-22T05:08:50.242Z,8.10
2023-03-22T05:13:52.235Z,7.38
2023-03-22T05:18:54.487Z,8.02
2023-03-22T05:23:56.657Z,8.63
2023-03-22T05:28:58.118Z,9.30
2023-03-22T05:33:59.543Z,8.88
2023-03-22T05:39:01.355Z,9.30
2023-03-22T05:44:02.768Z,9.02
2023-03-22T05:49:04.147Z,8.68
2023-03-22T05:54:07.666Z,8.73
2023-03-22T05:59:09.133Z,9.45
2023-03-22T06:04:10.639Z,9.13
2023-03-22T06:09:17.424Z,9.27
2023-03-22T06:14:19.158Z,9.02
2023-03-22T06:19:20.538Z,8.48
2023-03-22T06:24:22.964Z,8.05
2023-03-22T06:29:24.456Z,7.60
2023-03-22T06:34:26.480Z,7.95
2023-03-22T06:39:28.180Z,7.57
2023-03-22T06:44:29.610Z,7.10
2023-03-22T06:49:31.695Z,6.63
2023-03-22T06:54:33.168Z,6.38
2023-03-22T06:59:34.778Z,5.63
2023-03-22T07:04:36.248Z,5.60
2023-03-22T07:09:39.164Z,5.05
2023-03-22T07:14:40.645Z,6.00
2023-03-22T07:19:42.835Z,5.13
2023-03-22T07:24:56.248Z,4.72
2023-03-22T07:29:59.211Z,5.22
2023-03-22T07:35:00.761Z,3.63
2023-03-22T07:40:04.180Z,3.70
2023-03-22T07:45:06.770Z,3.10
2023-03-22T07:50:09.581Z,3.33
2023-03-22T07:55:12.396Z,3.22
2023-03-22T08:00:14.012Z,3.22
2023-03-22T08:05:15.717Z,3.42
2023-03-22T08:10:17.139Z,3.30
2023-03-22T08:15:18.524Z,3.97
2023-03-22T08:20:19.891Z,3.55
2023-03-22T08:25:21.921Z,3.30
2023-03-22T08:30:23.395Z,3.75
2023-03-22T08:35:24.836Z,3.67
2023-03-22T08:40:26.540Z,3.63
2023-03-22T08:45:28.904Z,3.15
2023-03-22T08:50:30.483Z,3.78
2023-03-22T08:55:35.369Z,3.70
2023-03-22T09:00:48.236Z,4.05
2023-03-22T09:05:50.710Z,3.83
2023-03-22T09:10:52.454Z,3.45
2023-03-22T09:15:54.017Z,3.65
2023-03-22T09:20:55.516Z,4.32
2023-03-22T09:25:59.440Z,3.28
2023-03-22T09:31:08.494Z,3.47
2023-03-22T09:36:11.982Z,3.13
2023-03-22T09:41:19.261Z,2.70
2023-03-22T09:46:27.034Z,3.33
2023-03-22T09:51:45.445Z,3.88
2023-03-22T09:56:49.828Z,3.28
2023-03-22T10:02:01.854Z,3.53
2023-03-22T10:07:09.742Z,2.78
2023-03-22T10:12:26.834Z,3.80
2023-03-22T10:17:30.250Z,3.35
2023-03-22T10:22:34.355Z,3.30
2023-03-22T10:27:36.157Z,3.22
2023-03-22T10:32:56.696Z,3.70
2023-03-22T10:38:00.853Z,3.20
2023-03-22T10:43:21.170Z,3.70
2023-03-22T10:48:25.422Z,4.05
2023-03-22T10:53:38.856Z,3.85
2023-03-22T10:58:40.469Z,4.00
2023-03-22T11:03:43.062Z,4.00
2023-03-22T11:08:45.015Z,4.03
2023-03-22T11:13:52.338Z,4.40
2023-03-22T11:18:54.712Z,4.13
2023-03-22T11:24:01.485Z,4.05
2023-03-22T11:29:10.605Z,4.65
2023-03-22T11:34:16.854Z,4.27
2023-03-22T11:39:21.358Z,4.03
2023-03-22T11:44:23.144Z,4.30
2023-03-22T11:49:27.061Z,4.70
2023-03-22T11:54:34.245Z,4.68
2023-03-22T11:59:39.509Z,4.65
2023-03-22T12:04:41.789Z,4.80
2023-03-22T12:09:59.142Z,5.32
2023-03-22T12:15:24.577Z,4.85
2023-03-22T12:20:35.721Z,5.38
2023-03-22T12:25:38.025Z,4.80
2023-03-22T12:30:43.192Z,5.05
2023-03-22T12:35:46.764Z,5.10
2023-03-22T12:40:48.339Z,4.55
2023-03-22T12:45:53.290Z,4.75
2023-03-22T12:51:00.386Z,5.10
2023-03-22T12:56:02.653Z,5.20
2023-03-22T13:01:22.112Z,5.60
2023-03-22T13:06:33.095Z,5.10
2023-03-22T13:11:34.753Z,5.10
2023-03-22T13:16:47.784Z,6.18
2023-03-22T13:21:50.033Z,5.20
2023-03-22T13:26:53.093Z,5.10
2023-03-22T13:31:58.954Z,5.43
2023-03-22T13:37:03.651Z,5.43
2023-03-22T13:42:25.330Z,5.63
2023-03-22T13:47:37.190Z,5.68
2023-03-22T13:52:41.124Z,6.43
2023-03-22T13:57:47.682Z,5.30
2023-03-22T14:02:50.164Z,5.30
2023-03-22T14:07:56.302Z,5.43
2023-03-22T14:13:16.373Z,5.55
